Clearwater, NE (68726)

4:29 PM CST on February 05, 2016 (GMT -0600)
KNENELIG1 | | Change Station
CLOSE
Current Station
Personal Weather Station
Location: Neligh, NE
Elevation: 1750 ft
Nearby Weather Stations

Elev 1750 ft 42.13 °N, 98.03 °W | Updated 4 minutes ago

Overcast
Overcast
37.2 °F
Feels Like 33 °F
N
5.0
Wind Variable Wind from NW
Gusts 8.0 mph

Today
High -- | Low -- °F
--% Chance of Precip.
Yesterday
High -- | Low -- °F
Precip. -- in
Pressure 30.18 in
Visibility 10.0 miles
Clouds Overcast 2900 ft
Windchill 33 °F
Dew Point 32 °F
Humidity 83%
Rainfall 0.02 in
Snow Depth Not available.
7:41 AM 5:52 PM
Waning Crescent, 9% visible
METAR KBVN 052215Z AUTO 33010KT 10SM OVC029 04/M02 A3018 RMK AO2 T00351016
Pressure 30.18 in
Visibility 10.0 miles
Clouds Overcast 2900 ft
Windchill 33 °F
Dew Point 32 °F
Humidity 83%
Rainfall 0.02 in
Snow Depth Not available.
7:41 AM 5:52 PM
Waning Crescent, 9% visible
METAR KBVN 052215Z AUTO 33010KT 10SM OVC029 04/M02 A3018 RMK AO2 T00351016

10-Day Weather Forecast

Almanac

Astronomy

Feb. 05, 2016 Rise Set
Actual Time
Civil Twilight
Nautical Twilight
Astronomical Twilight
Moon
Length of Visible Light
Length of Day
Tomorrow will be .
, % of the Moon is Illuminated

Today's Extremes

State Highs State Lows

Community

WunderPhotos

Upload Photos

1,890,878 photos uploaded!

WunderBlog® & News

Nearby

Air Quality

  Air Quality AQ Index Pollutant
Not available.

Snow Depth

Station Depth Elevation

Earthquake Activity

City Distance Mag. Time & Date
Minimum magnitude displayed is 2.5.

Coastal Water Temperatures

Place Temperature

Stations

Nearby Weather Stations

Station Location Temp. Windchill Dew Point Humidity Wind Precip. Elev Updated Type
                   

Watches & Warnings

There are currently no watches in effect.